Michigan Bluff, California
Current Conditions -  °F | °C
As of 12:52 AM on Friday 24 Oct 2014 (Local Time) from KBLU Reporting Station
Clear Clear  
Wind Chill: 51°   Ceiling: Unl
Heat Index: 51°   Visibility: 10mi
Dew Point: 35°   Wind: 6mph
Humidity: 54%   Direction: 140°SE
Pressure: 30.14"   Gusts: NA
Location:  39.0724°N, 120.571°W
Report Text: KBLU 240752Z AUTO 14005KT 10SM CLR 11/02 A3014 RMK AO2 SLP159 T01060017 401280094 $
Loading
Personal Weather Stations






























Interactive Weather Map
Tropical Storm Tracking
New forecast layout! Learn more

10-Day Weather Forecast

Advertisements
Track Severe Weather on mobile